Time;durP1;ratioP1;P1;durP2;ratioP2;P2;SDS_P1;SDS_P2;PMS_P1;PMS_P2;Temp;Humidity;BMP_temperature;BMP_pressure;BME280_temperature;BME280_humidity;BME280_pressure;Samples;Min_cycle;Max_cycle;Signal;HPM_P1;HPM_P2
2023/09/24 00:00:26;;;;;;;2.83;2.67;;;;;;;;;;6231922;28;20295;-68
2023/09/24 00:03:31;;;;;;;2.90;2.80;;;;;;;;;;6230875;28;20300;-69
2023/09/24 00:06:35;;;;;;;2.60;2.50;;;;;;;;;;6231180;28;20296;-70
2023/09/24 00:09:38;;;;;;;4.63;2.53;;;;;;;;;;6231835;28;20239;-69
2023/09/24 00:12:42;;;;;;;2.67;2.47;;;;;;;;;;6231687;28;20514;-69
2023/09/24 00:15:48;;;;;;;2.15;2.05;;;;;;;;;;6231590;28;20558;-71
2023/09/24 00:18:53;;;;;;;2.38;2.17;;;;;;;;;;6231514;28;20402;-70
2023/09/24 00:21:57;;;;;;;2.33;2.15;;;;;;;;;;6232266;28;20304;-69
2023/09/24 00:25:00;;;;;;;2.30;2.20;;;;;;;;;;6246437;28;20400;-70
2023/09/24 00:28:05;;;;;;;2.67;2.50;;;;;;;;;;6235996;28;20491;-71
2023/09/24 00:31:10;;;;;;;2.58;2.30;;;;;;;;;;6251315;28;20303;-70
2023/09/24 00:34:14;;;;;;;2.38;2.35;;;;;;;;;;6252023;28;20300;-71
2023/09/24 00:37:18;;;;;;;2.60;2.50;;;;;;;;;;6236184;28;20288;-70
2023/09/24 00:40:22;;;;;;;2.47;2.47;;;;;;;;;;6236230;28;20307;-70
2023/09/24 00:43:30;;;;;;;2.95;2.60;;;;;;;;;;6252103;28;20304;-70
2023/09/24 00:46:36;;;;;;;2.33;2.33;;;;;;;;;;6251249;28;20304;-73
2023/09/24 00:49:41;;;;;;;2.13;2.10;;;;;;;;;;6236000;28;20315;-69
2023/09/24 00:52:45;;;;;;;2.17;2.10;;;;;;;;;;6236664;28;20308;-70
2023/09/24 00:55:49;;;;;;;2.10;2.10;;;;;;;;;;6236169;28;20324;-69
2023/09/24 00:58:54;;;;;;;1.70;1.60;;;;;;;;;;6242525;28;20313;-72
2023/09/24 01:02:00;;;;;;;2.13;2.00;;;;;;;;;;6212297;28;20293;-69
2023/09/24 01:05:04;;;;;;;3.40;2.08;;;;;;;;;;6210121;28;20297;-70
2023/09/24 01:08:08;;;;;;;2.00;2.00;;;;;;;;;;6212037;28;20328;-71
2023/09/24 01:11:13;;;;;;;2.05;1.88;;;;;;;;;;6220897;28;20465;-70
2023/09/24 01:14:18;;;;;;;5.05;2.55;;;;;;;;;;6235701;28;20296;-70
2023/09/24 01:17:24;;;;;;;2.08;2.08;;;;;;;;;;6235973;28;20783;-70
2023/09/24 01:20:31;;;;;;;5.68;2.10;;;;;;;;;;6250318;28;20296;-70
2023/09/24 01:23:38;;;;;;;2.13;1.98;;;;;;;;;;6235903;28;20481;-69
2023/09/24 01:26:44;;;;;;;4.10;2.13;;;;;;;;;;6235055;28;20300;-69
2023/09/24 01:29:48;;;;;;;2.20;2.00;;;;;;;;;;6249848;28;20591;-68
2023/09/24 01:32:52;;;;;;;2.28;2.00;;;;;;;;;;6235294;28;20608;-70
2023/09/24 01:35:56;;;;;;;2.47;2.38;;;;;;;;;;6235024;28;20321;-68
2023/09/24 01:39:01;;;;;;;2.88;2.60;;;;;;;;;;6249005;28;20304;-69
2023/09/24 01:42:07;;;;;;;3.25;3.00;;;;;;;;;;6235340;28;20304;-69
2023/09/24 01:45:11;;;;;;;3.72;3.53;;;;;;;;;;6249431;28;20288;-68
2023/09/24 01:48:17;;;;;;;3.50;2.72;;;;;;;;;;6250407;28;20288;-68
2023/09/24 01:51:23;;;;;;;2.63;2.53;;;;;;;;;;6249243;28;20363;-69
2023/09/24 01:54:28;;;;;;;5.18;2.53;;;;;;;;;;6249829;28;20312;-69
2023/09/24 01:57:32;;;;;;;2.53;2.33;;;;;;;;;;6242508;28;20301;-69
2023/09/24 02:00:36;;;;;;;2.40;2.25;;;;;;;;;;6223959;28;20296;-68
2023/09/24 02:03:41;;;;;;;2.92;2.33;;;;;;;;;;6208656;28;20269;-71
2023/09/24 02:06:45;;;;;;;2.05;2.05;;;;;;;;;;6210366;28;20273;-70
2023/09/24 02:09:50;;;;;;;2.25;2.15;;;;;;;;;;6208247;28;20651;-69
2023/09/24 02:12:54;;;;;;;1.95;1.95;;;;;;;;;;6233520;28;20292;-69
2023/09/24 02:16:00;;;;;;;1.65;1.60;;;;;;;;;;6233909;28;20316;-70
2023/09/24 02:19:04;;;;;;;1.98;1.88;;;;;;;;;;6249257;28;20333;-70
2023/09/24 02:22:08;;;;;;;4.47;2.00;;;;;;;;;;6234505;28;20320;-71
2023/09/24 02:25:14;;;;;;;1.65;1.63;;;;;;;;;;6248813;28;20304;-69
2023/09/24 02:28:18;;;;;;;2.08;1.52;;;;;;;;;;6249437;28;20304;-68
2023/09/24 02:31:23;;;;;;;4.13;1.73;;;;;;;;;;6233638;28;20308;-68
2023/09/24 02:34:29;;;;;;;1.67;1.58;;;;;;;;;;6233544;28;20304;-68
2023/09/24 02:37:33;;;;;;;4.03;1.60;;;;;;;;;;6249285;28;20296;-69
2023/09/24 02:40:38;;;;;;;1.70;1.60;;;;;;;;;;6248745;28;20297;-68
2023/09/24 02:43:43;;;;;;;1.88;1.77;;;;;;;;;;6248724;28;20329;-68
2023/09/24 02:46:46;;;;;;;1.60;1.60;;;;;;;;;;6233752;28;20391;-68
2023/09/24 02:49:51;;;;;;;1.92;1.80;;;;;;;;;;6247172;28;20316;-68
2023/09/24 02:52:56;;;;;;;1.83;1.70;;;;;;;;;;6234028;28;20300;-69
2023/09/24 02:56:04;;;;;;;2.28;1.65;;;;;;;;;;6233528;28;20308;-67
2023/09/24 02:59:11;;;;;;;1.70;1.65;;;;;;;;;;6232731;28;20296;-72
2023/09/24 03:02:16;;;;;;;1.73;1.73;;;;;;;;;;6220889;28;20288;-70
2023/09/24 03:05:24;;;;;;;2.78;1.80;;;;;;;;;;6230686;28;20303;-70
2023/09/24 03:08:30;;;;;;;2.00;1.60;;;;;;;;;;6209271;28;20304;-68
2023/09/24 03:11:35;;;;;;;1.70;1.60;;;;;;;;;;6238563;28;20486;-68
2023/09/24 03:14:39;;;;;;;1.70;1.70;;;;;;;;;;6247948;28;20312;-69
2023/09/24 03:17:44;;;;;;;2.95;1.50;;;;;;;;;;6247574;28;20307;-69
2023/09/24 03:20:48;;;;;;;1.80;1.58;;;;;;;;;;6233029;28;20304;-68
2023/09/24 03:23:53;;;;;;;1.52;1.48;;;;;;;;;;6233450;28;20565;-69
2023/09/24 03:26:58;;;;;;;4.50;2.33;;;;;;;;;;6248465;28;20553;-69
2023/09/24 03:30:03;;;;;;;5.15;1.83;;;;;;;;;;6230537;28;20305;-68
2023/09/24 03:33:08;;;;;;;3.22;1.73;;;;;;;;;;6232462;28;20305;-70
2023/09/24 03:36:12;;;;;;;1.38;1.38;;;;;;;;;;6232410;28;20320;-68
2023/09/24 03:39:16;;;;;;;6.20;1.73;;;;;;;;;;6247194;28;20492;-68
2023/09/24 03:42:40;;;;;;;1.60;1.50;;;;;;;;;;6231460;28;20268;-69
2023/09/24 03:45:44;;;;;;;1.70;1.60;;;;;;;;;;6232622;28;20255;-69
2023/09/24 03:48:49;;;;;;;2.17;1.60;;;;;;;;;;6232108;28;20585;-70
2023/09/24 03:51:53;;;;;;;3.22;1.70;;;;;;;;;;6232615;28;20304;-70
2023/09/24 03:54:59;;;;;;;1.55;1.40;;;;;;;;;;6232228;28;20304;-69
2023/09/24 03:58:05;;;;;;;1.52;1.50;;;;;;;;;;6238569;28;20312;-69
2023/09/24 04:01:11;;;;;;;2.50;1.67;;;;;;;;;;6207713;28;20296;-70
2023/09/24 04:04:15;;;;;;;4.45;1.67;;;;;;;;;;6220636;28;20499;-69
2023/09/24 04:07:19;;;;;;;1.65;1.50;;;;;;;;;;6207939;28;20313;-69
2023/09/24 04:10:27;;;;;;;1.85;1.60;;;;;;;;;;6246285;28;20494;-69
2023/09/24 04:13:34;;;;;;;3.22;1.67;;;;;;;;;;6231832;28;20485;-70
2023/09/24 04:16:37;;;;;;;1.63;1.60;;;;;;;;;;6232598;28;20299;-69
2023/09/24 04:19:41;;;;;;;1.85;1.60;;;;;;;;;;6231654;28;20300;-68
2023/09/24 04:22:46;;;;;;;3.15;1.38;;;;;;;;;;6231380;28;20372;-69
2023/09/24 04:25:51;;;;;;;3.00;1.63;;;;;;;;;;6232339;28;20446;-69
2023/09/24 04:28:57;;;;;;;3.75;1.40;;;;;;;;;;6231482;28;20296;-68
2023/09/24 04:32:01;;;;;;;3.45;1.30;;;;;;;;;;6231942;28;20323;-69
2023/09/24 04:35:05;;;;;;;3.25;1.30;;;;;;;;;;6231193;28;20312;-69
2023/09/24 04:38:10;;;;;;;2.67;1.52;;;;;;;;;;6231654;28;20550;-68
2023/09/24 04:41:16;;;;;;;4.32;1.73;;;;;;;;;;6247182;28;20483;-68
2023/09/24 04:44:21;;;;;;;6.22;1.50;;;;;;;;;;6231662;28;20308;-69
2023/09/24 04:47:25;;;;;;;6.15;1.60;;;;;;;;;;6231826;28;20328;-69
2023/09/24 04:50:29;;;;;;;3.63;1.60;;;;;;;;;;6232015;28;20295;-69
2023/09/24 04:53:33;;;;;;;2.80;1.48;;;;;;;;;;6230501;28;20363;-68
2023/09/24 04:56:36;;;;;;;2.38;1.30;;;;;;;;;;6232217;28;20304;-68
2023/09/24 04:59:42;;;;;;;1.58;1.48;;;;;;;;;;6231160;28;20296;-70
2023/09/24 05:02:47;;;;;;;1.52;1.40;;;;;;;;;;6229658;28;20304;-68
2023/09/24 05:05:51;;;;;;;1.80;1.50;;;;;;;;;;6231882;28;20300;-69
2023/09/24 05:08:56;;;;;;;2.38;1.60;;;;;;;;;;6231196;28;20320;-70
2023/09/24 05:12:00;;;;;;;3.50;1.67;;;;;;;;;;6231517;28;20296;-68
2023/09/24 05:15:07;;;;;;;1.55;1.50;;;;;;;;;;6234889;28;20303;-68
2023/09/24 05:18:11;;;;;;;1.25;1.25;;;;;;;;;;6235443;28;20300;-69
2023/09/24 05:21:17;;;;;;;6.32;1.30;;;;;;;;;;6236229;28;20349;-69
2023/09/24 05:24:21;;;;;;;3.42;1.40;;;;;;;;;;6235246;28;20307;-73
2023/09/24 05:27:26;;;;;;;3.13;1.70;;;;;;;;;;6236067;28;20307;-67
2023/09/24 05:30:31;;;;;;;2.28;1.40;;;;;;;;;;6234756;28;20304;-70
2023/09/24 05:33:35;;;;;;;2.60;1.60;;;;;;;;;;6234473;28;20327;-70
2023/09/24 05:36:39;;;;;;;2.85;2.15;;;;;;;;;;6235292;28;20292;-70
2023/09/24 05:39:42;;;;;;;2.25;2.10;;;;;;;;;;6234736;28;20300;-72
2023/09/24 05:42:48;;;;;;;4.07;2.13;;;;;;;;;;6234594;28;20244;-70
2023/09/24 05:45:53;;;;;;;2.55;1.80;;;;;;;;;;6235231;28;20237;-70
2023/09/24 05:48:58;;;;;;;3.78;1.52;;;;;;;;;;6234557;28;20368;-70
2023/09/24 05:52:02;;;;;;;1.77;1.60;;;;;;;;;;6235385;28;20541;-70
2023/09/24 05:55:07;;;;;;;3.22;1.30;;;;;;;;;;6234420;28;20300;-69
2023/09/24 05:58:11;;;;;;;3.53;1.30;;;;;;;;;;6234451;28;20604;-71
2023/09/24 06:01:16;;;;;;;4.85;1.45;;;;;;;;;;6234396;28;20331;-68
2023/09/24 06:04:20;;;;;;;2.10;1.40;;;;;;;;;;6232354;28;20304;-69
2023/09/24 06:07:28;;;;;;;3.53;1.17;;;;;;;;;;6235045;28;20296;-68
2023/09/24 06:10:31;;;;;;;1.58;1.30;;;;;;;;;;6233853;28;20616;-71
2023/09/24 06:13:35;;;;;;;3.30;1.50;;;;;;;;;;6249462;28;20496;-68
2023/09/24 06:16:40;;;;;;;3.28;1.30;;;;;;;;;;6234895;28;20445;-68
2023/09/24 06:19:45;;;;;;;2.05;1.45;;;;;;;;;;6234084;28;20320;-68
2023/09/24 06:22:52;;;;;;;3.70;1.42;;;;;;;;;;6233805;28;20304;-69
2023/09/24 06:25:56;;;;;;;4.60;1.50;;;;;;;;;;6234290;28;20508;-68
2023/09/24 06:29:00;;;;;;;1.25;1.23;;;;;;;;;;6233807;28;20312;-70
2023/09/24 06:32:15;;;;;;;2.13;1.20;;;;;;;;;;6234387;28;20320;-70
2023/09/24 06:35:19;;;;;;;4.00;1.13;;;;;;;;;;6233216;28;20317;-68
2023/09/24 06:38:23;;;;;;;5.47;1.20;;;;;;;;;;6233518;28;20304;-69
2023/09/24 06:41:27;;;;;;;2.15;1.23;;;;;;;;;;6234228;28;20487;-69
2023/09/24 06:44:32;;;;;;;2.15;1.17;;;;;;;;;;6231446;28;20483;-71
2023/09/24 06:47:37;;;;;;;3.28;1.42;;;;;;;;;;6233085;28;20538;-68
2023/09/24 06:50:41;;;;;;;5.30;1.40;;;;;;;;;;6233955;28;20304;-70
2023/09/24 06:53:45;;;;;;;3.33;1.17;;;;;;;;;;6233277;28;20245;-69
2023/09/24 06:56:50;;;;;;;1.60;1.50;;;;;;;;;;6233944;28;20320;-69
2023/09/24 06:59:54;;;;;;;1.00;0.82;;;;;;;;;;6233115;28;20299;-71
2023/09/24 07:02:59;;;;;;;2.55;1.52;;;;;;;;;;6231386;28;20491;-70
2023/09/24 07:06:05;;;;;;;3.65;1.20;;;;;;;;;;6233844;28;20308;-70
2023/09/24 07:09:09;;;;;;;3.70;1.13;;;;;;;;;;6233224;28;20296;-70
2023/09/24 07:12:13;;;;;;;1.70;1.08;;;;;;;;;;6233151;28;20304;-70
2023/09/24 07:15:17;;;;;;;2.05;1.20;;;;;;;;;;6233194;28;20299;-70
2023/09/24 07:18:22;;;;;;;2.03;1.08;;;;;;;;;;6231860;28;20315;-69
2023/09/24 07:21:28;;;;;;;2.88;1.25;;;;;;;;;;6233380;28;20305;-69
2023/09/24 07:24:38;;;;;;;2.22;1.00;;;;;;;;;;6231950;28;20331;-68
2023/09/24 07:27:42;;;;;;;5.57;1.20;;;;;;;;;;6232968;28;20252;-69
2023/09/24 07:30:45;;;;;;;2.50;1.10;;;;;;;;;;6232938;28;20256;-70
2023/09/24 07:33:52;;;;;;;1.30;1.30;;;;;;;;;;6232481;28;20492;-68
2023/09/24 07:36:56;;;;;;;4.30;1.42;;;;;;;;;;6232192;28;20303;-69
2023/09/24 07:40:16;;;;;;;1.40;0.95;;;;;;;;;;6233241;28;20303;-70
2023/09/24 07:43:20;;;;;;;2.70;1.40;;;;;;;;;;6227717;28;20489;-71
2023/09/24 07:46:24;;;;;;;2.70;1.17;;;;;;;;;;6208594;28;20389;-69
2023/09/24 07:49:29;;;;;;;2.05;1.00;;;;;;;;;;6207752;28;20296;-69
2023/09/24 07:52:33;;;;;;;5.05;1.00;;;;;;;;;;6207919;28;20309;-70
2023/09/24 07:55:37;;;;;;;6.78;1.10;;;;;;;;;;6207960;28;20301;-69
2023/09/24 07:58:42;;;;;;;1.58;0.98;;;;;;;;;;6227597;28;20303;-68
2023/09/24 08:01:45;;;;;;;2.70;0.90;;;;;;;;;;6232760;28;20308;-69
2023/09/24 08:04:52;;;;;;;4.03;1.00;;;;;;;;;;6245150;28;20439;-71
2023/09/24 08:07:56;;;;;;;3.72;1.10;;;;;;;;;;6231612;28;20308;-69
2023/09/24 08:10:59;;;;;;;6.07;1.08;;;;;;;;;;6232105;28;20319;-68
2023/09/24 08:14:03;;;;;;;3.85;1.27;;;;;;;;;;6231518;28;20308;-67
2023/09/24 08:17:07;;;;;;;3.65;1.30;;;;;;;;;;6232057;28;20391;-69
2023/09/24 08:20:13;;;;;;;2.78;1.10;;;;;;;;;;6230691;28;20437;-70
2023/09/24 08:23:18;;;;;;;2.42;1.00;;;;;;;;;;6231670;28;20369;-69
2023/09/24 08:26:21;;;;;;;4.60;1.10;;;;;;;;;;6231572;28;20299;-69
2023/09/24 08:29:25;;;;;;;2.88;1.10;;;;;;;;;;6231347;28;20331;-68
2023/09/24 08:32:29;;;;;;;1.52;0.98;;;;;;;;;;6231722;28;20304;-70
2023/09/24 08:35:36;;;;;;;2.83;1.10;;;;;;;;;;6231486;28;20249;-70
2023/09/24 08:38:40;;;;;;;1.50;1.00;;;;;;;;;;6231316;28;20312;-69
2023/09/24 08:41:45;;;;;;;6.43;1.50;;;;;;;;;;6232007;28;20323;-69
2023/09/24 08:44:55;;;;;;;2.10;1.10;;;;;;;;;;6229488;28;20300;-69
2023/09/24 08:48:00;;;;;;;1.23;1.10;;;;;;;;;;6233487;28;20312;-69
2023/09/24 08:51:07;;;;;;;3.03;1.00;;;;;;;;;;6236786;28;20304;-68
2023/09/24 08:54:11;;;;;;;1.75;0.93;;;;;;;;;;6235782;28;20308;-67
2023/09/24 08:57:16;;;;;;;0.93;0.93;;;;;;;;;;6252126;28;20476;-70
2023/09/24 09:00:20;;;;;;;2.40;0.90;;;;;;;;;;6236647;28;20327;-68
2023/09/24 09:03:24;;;;;;;1.40;1.20;;;;;;;;;;6234390;28;20308;-69
2023/09/24 09:06:33;;;;;;;1.42;1.20;;;;;;;;;;6238049;28;20296;-70
2023/09/24 09:09:37;;;;;;;3.92;1.48;;;;;;;;;;6235230;28;20296;-72
2023/09/24 09:12:41;;;;;;;1.50;1.40;;;;;;;;;;6235667;28;20265;-69
2023/09/24 09:15:45;;;;;;;2.22;1.13;;;;;;;;;;6235700;28;20577;-69
2023/09/24 09:19:00;;;;;;;1.85;0.90;;;;;;;;;;6234828;28;20300;-69
2023/09/24 09:22:19;;;;;;;4.65;1.00;;;;;;;;;;6235361;28;20312;-70
2023/09/24 09:25:23;;;;;;;2.90;0.90;;;;;;;;;;6235336;28;20289;-67
2023/09/24 09:28:28;;;;;;;3.20;1.00;;;;;;;;;;6235030;28;20296;-68
2023/09/24 09:31:31;;;;;;;1.23;1.17;;;;;;;;;;6235642;28;20304;-68
2023/09/24 09:34:35;;;;;;;0.88;0.88;;;;;;;;;;6234981;28;20233;-69
2023/09/24 09:37:41;;;;;;;0.90;0.90;;;;;;;;;;6235143;28;20304;-68
2023/09/24 09:40:45;;;;;;;0.70;0.70;;;;;;;;;;6235234;28;20320;-68
2023/09/24 09:43:49;;;;;;;2.28;0.80;;;;;;;;;;6234787;28;20320;-68
2023/09/24 09:46:54;;;;;;;1.10;0.98;;;;;;;;;;6234952;28;20560;-68
2023/09/24 09:49:59;;;;;;;2.75;0.80;;;;;;;;;;6236403;28;20296;-67
2023/09/24 09:53:08;;;;;;;1.13;1.13;;;;;;;;;;6235718;28;20300;-68
2023/09/24 09:56:12;;;;;;;1.75;1.00;;;;;;;;;;6236371;28;20304;-69
2023/09/24 09:59:17;;;;;;;5.78;1.27;;;;;;;;;;6238873;28;20355;-69
2023/09/24 10:02:22;;;;;;;1.98;1.00;;;;;;;;;;6235343;28;20288;-71
2023/09/24 10:05:26;;;;;;;3.03;0.77;;;;;;;;;;6234408;28;20324;-75
2023/09/24 10:08:40;;;;;;;0.80;0.80;;;;;;;;;;6234764;28;20307;-73
2023/09/24 10:11:53;;;;;;;4.85;1.23;;;;;;;;;;6234637;28;20304;-69
2023/09/24 10:14:57;;;;;;;3.13;0.90;;;;;;;;;;6234583;28;20420;-70
2023/09/24 10:18:25;;;;;;;2.25;1.10;;;;;;;;;;6248986;28;20472;-67
2023/09/24 10:21:31;;;;;;;0.88;0.88;;;;;;;;;;6234844;28;20440;-67
2023/09/24 10:24:45;;;;;;;0.82;0.82;;;;;;;;;;6233036;28;20335;-68
2023/09/24 10:28:02;;;;;;;0.82;0.82;;;;;;;;;;6233451;28;20300;-70
2023/09/24 10:31:12;;;;;;;3.30;0.90;;;;;;;;;;6232830;28;20305;-68
2023/09/24 10:34:16;;;;;;;1.30;0.90;;;;;;;;;;6232171;28;20237;-68
2023/09/24 10:37:20;;;;;;;0.90;0.90;;;;;;;;;;6232057;28;20309;-68
2023/09/24 10:40:27;;;;;;;0.85;0.82;;;;;;;;;;6231911;28;20307;-69
2023/09/24 10:43:31;;;;;;;2.00;1.10;;;;;;;;;;6231766;28;20308;-69
2023/09/24 10:46:34;;;;;;;0.57;0.57;;;;;;;;;;6232396;28;20460;-72
2023/09/24 10:49:38;;;;;;;2.15;1.30;;;;;;;;;;6231522;28;20295;-70
2023/09/24 10:52:49;;;;;;;2.33;1.00;;;;;;;;;;6231083;28;20430;-70
2023/09/24 10:55:54;;;;;;;0.77;0.70;;;;;;;;;;6231867;28;20308;-71
2023/09/24 10:59:14;;;;;;;1.02;1.02;;;;;;;;;;6212479;28;20304;-71
2023/09/24 11:02:19;;;;;;;0.85;0.85;;;;;;;;;;6206262;28;20296;-69
2023/09/24 11:05:25;;;;;;;1.33;0.80;;;;;;;;;;6206815;28;20308;-70
2023/09/24 11:08:31;;;;;;;1.00;1.00;;;;;;;;;;6207000;28;20305;-69
2023/09/24 11:11:36;;;;;;;0.70;0.70;;;;;;;;;;6223226;28;20243;-69
2023/09/24 11:14:39;;;;;;;1.25;0.80;;;;;;;;;;6229842;28;20251;-70
2023/09/24 11:17:45;;;;;;;1.05;0.90;;;;;;;;;;6231218;28;20794;-67
2023/09/24 11:20:50;;;;;;;2.22;0.70;;;;;;;;;;6228530;28;20312;-69
2023/09/24 11:23:54;;;;;;;2.35;1.00;;;;;;;;;;6228961;28;20292;-69
2023/09/24 11:27:00;;;;;;;1.25;1.17;;;;;;;;;;6231564;28;20307;-70
2023/09/24 11:30:05;;;;;;;1.83;1.02;;;;;;;;;;6230464;28;20582;-68
2023/09/24 11:33:14;;;;;;;0.60;0.60;;;;;;;;;;6230326;28;20296;-68
2023/09/24 11:36:20;;;;;;;0.70;0.70;;;;;;;;;;6230743;28;20311;-68
2023/09/24 11:39:23;;;;;;;4.07;0.93;;;;;;;;;;6230617;28;20307;-68
2023/09/24 11:42:29;;;;;;;1.65;0.80;;;;;;;;;;6223098;28;20300;-69
2023/09/24 11:45:38;;;;;;;1.75;0.85;;;;;;;;;;6230146;28;20324;-69
2023/09/24 11:48:42;;;;;;;0.85;0.80;;;;;;;;;;6229308;28;20292;-68
2023/09/24 11:51:46;;;;;;;2.58;1.00;;;;;;;;;;6230819;28;20298;-68
2023/09/24 11:54:49;;;;;;;0.88;0.80;;;;;;;;;;6228263;28;20323;-68
2023/09/24 11:57:54;;;;;;;2.20;0.77;;;;;;;;;;6228357;28;20299;-69
2023/09/24 12:00:59;;;;;;;2.17;0.88;;;;;;;;;;6230272;28;20557;-67
2023/09/24 12:04:03;;;;;;;1.00;0.90;;;;;;;;;;6230063;28;20300;-68
2023/09/24 12:07:07;;;;;;;1.55;1.00;;;;;;;;;;6230498;28;20300;-72
2023/09/24 12:10:11;;;;;;;0.80;0.80;;;;;;;;;;6229969;28;20288;-69
2023/09/24 12:13:17;;;;;;;1.65;1.02;;;;;;;;;;6230304;28;20549;-69
2023/09/24 12:16:21;;;;;;;0.75;0.75;;;;;;;;;;6230810;28;20308;-69
2023/09/24 12:19:25;;;;;;;1.17;0.60;;;;;;;;;;6230052;28;20295;-69
2023/09/24 12:22:29;;;;;;;0.70;0.70;;;;;;;;;;6231099;28;20399;-69
2023/09/24 12:25:34;;;;;;;2.42;0.70;;;;;;;;;;6235660;28;20539;-69
2023/09/24 12:28:42;;;;;;;0.73;0.70;;;;;;;;;;6234895;28;20296;-69
2023/09/24 12:31:46;;;;;;;0.90;0.90;;;;;;;;;;6235311;28;20300;-69
2023/09/24 12:34:50;;;;;;;0.90;0.82;;;;;;;;;;6234116;28;20292;-68
2023/09/24 12:37:54;;;;;;;0.85;0.80;;;;;;;;;;6233173;28;20296;-69
2023/09/24 12:40:58;;;;;;;2.75;0.70;;;;;;;;;;6233377;28;20616;-69
2023/09/24 12:44:04;;;;;;;1.75;0.90;;;;;;;;;;6234635;28;20300;-69
2023/09/24 12:47:07;;;;;;;0.55;0.55;;;;;;;;;;6234597;28;20308;-69
2023/09/24 12:50:12;;;;;;;0.77;0.77;;;;;;;;;;6234451;28;20596;-69
2023/09/24 12:53:16;;;;;;;2.72;0.90;;;;;;;;;;6234200;28;20336;-68
2023/09/24 12:56:21;;;;;;;0.70;0.68;;;;;;;;;;6234640;28;20307;-68
2023/09/24 12:59:26;;;;;;;2.47;0.80;;;;;;;;;;6234096;28;20304;-69
2023/09/24 13:02:30;;;;;;;1.83;0.60;;;;;;;;;;6234299;28;20288;-70
2023/09/24 13:05:35;;;;;;;0.95;0.75;;;;;;;;;;6234668;28;20616;-67
2023/09/24 13:08:39;;;;;;;2.53;0.77;;;;;;;;;;6233702;28;20288;-70
2023/09/24 13:11:44;;;;;;;1.95;0.73;;;;;;;;;;6234299;28;20576;-69
2023/09/24 13:14:49;;;;;;;3.22;0.77;;;;;;;;;;6232374;28;20303;-68
2023/09/24 13:17:54;;;;;;;1.00;0.70;;;;;;;;;;6234257;28;20324;-69
2023/09/24 13:20:58;;;;;;;0.70;0.70;;;;;;;;;;6235216;28;20296;-71
2023/09/24 13:24:01;;;;;;;0.63;0.63;;;;;;;;;;6233322;28;20606;-68
2023/09/24 13:27:06;;;;;;;0.60;0.60;;;;;;;;;;6225174;28;20292;-68
2023/09/24 13:30:12;;;;;;;1.45;0.70;;;;;;;;;;6234129;28;20300;-68
2023/09/24 13:33:16;;;;;;;0.60;0.60;;;;;;;;;;6232448;28;20328;-68
2023/09/24 13:36:21;;;;;;;1.02;0.82;;;;;;;;;;6231675;28;20557;-68
2023/09/24 13:39:25;;;;;;;0.77;0.77;;;;;;;;;;6231572;28;20300;-69
2023/09/24 13:42:29;;;;;;;0.60;0.60;;;;;;;;;;6233247;28;20442;-71
2023/09/24 13:45:40;;;;;;;0.75;0.75;;;;;;;;;;6238650;28;20312;-68
2023/09/24 13:48:44;;;;;;;1.08;0.77;;;;;;;;;;6232662;28;20292;-69
2023/09/24 13:51:50;;;;;;;1.30;1.00;;;;;;;;;;6233466;28;20380;-67
2023/09/24 13:54:54;;;;;;;3.20;0.70;;;;;;;;;;6232722;28;20297;-67
2023/09/24 13:57:57;;;;;;;1.70;0.73;;;;;;;;;;6211137;28;20236;-68
2023/09/24 14:01:03;;;;;;;2.33;1.00;;;;;;;;;;6231595;28;20582;-67
2023/09/24 14:04:07;;;;;;;1.10;1.00;;;;;;;;;;6233099;28;20300;-68
2023/09/24 14:07:11;;;;;;;0.90;0.90;;;;;;;;;;6231486;28;20304;-68
2023/09/24 14:13:37;;;;;;;2.45;0.82;;;;;;;;;;6233318;28;20289;-68
2023/09/24 14:16:42;;;;;;;0.93;0.82;;;;;;;;;;6234588;28;20304;-68
2023/09/24 14:19:49;;;;;;;1.30;0.68;;;;;;;;;;6234284;28;20339;-68
2023/09/24 14:22:53;;;;;;;0.80;0.80;;;;;;;;;;6233657;28;20324;-69
2023/09/24 14:25:59;;;;;;;2.95;0.90;;;;;;;;;;6233099;28;20580;-70
2023/09/24 14:29:03;;;;;;;0.73;0.73;;;;;;;;;;6231168;28;20296;-68
2023/09/24 14:32:09;;;;;;;0.80;0.80;;;;;;;;;;6233080;28;20287;-68
2023/09/24 14:35:12;;;;;;;0.70;0.70;;;;;;;;;;6232865;28;20240;-69
2023/09/24 14:38:16;;;;;;;0.82;0.82;;;;;;;;;;6235810;28;20292;-69
2023/09/24 14:41:20;;;;;;;2.80;0.80;;;;;;;;;;6245972;28;20491;-69
2023/09/24 14:44:27;;;;;;;4.40;0.98;;;;;;;;;;6232931;28;20608;-68
2023/09/24 14:47:32;;;;;;;1.65;0.80;;;;;;;;;;6232457;28;20308;-70
2023/09/24 14:50:40;;;;;;;4.40;0.70;;;;;;;;;;6232911;28;20371;-68
2023/09/24 14:53:44;;;;;;;0.63;0.63;;;;;;;;;;6238160;28;20233;-68
2023/09/24 14:56:48;;;;;;;0.73;0.73;;;;;;;;;;6232674;28;20452;-68
2023/09/24 14:59:53;;;;;;;0.85;0.85;;;;;;;;;;6231987;28;20292;-67
2023/09/24 15:02:59;;;;;;;0.95;0.80;;;;;;;;;;6228849;28;20303;-67
2023/09/24 15:06:03;;;;;;;0.95;0.93;;;;;;;;;;6231847;28;20305;-67
2023/09/24 15:09:07;;;;;;;0.90;0.73;;;;;;;;;;6230955;28;20303;-66
2023/09/24 15:12:12;;;;;;;2.55;0.90;;;;;;;;;;6231442;28;20367;-68
2023/09/24 15:15:17;;;;;;;2.28;1.00;;;;;;;;;;6229714;28;20296;-67
2023/09/24 15:18:22;;;;;;;0.98;0.98;;;;;;;;;;6236525;28;20299;-69
2023/09/24 15:21:27;;;;;;;0.90;0.90;;;;;;;;;;6229730;28;20300;-69
2023/09/24 15:24:31;;;;;;;0.80;0.80;;;;;;;;;;6230854;28;20320;-67
2023/09/24 15:27:35;;;;;;;0.77;0.77;;;;;;;;;;6228328;28;20311;-68
2023/09/24 15:30:40;;;;;;;1.00;1.00;;;;;;;;;;6238277;28;20648;-68
2023/09/24 15:33:45;;;;;;;0.70;0.70;;;;;;;;;;6230206;28;20316;-67
2023/09/24 15:36:49;;;;;;;1.38;0.80;;;;;;;;;;6230842;28;20291;-68
2023/09/24 15:39:53;;;;;;;0.80;0.80;;;;;;;;;;6227741;28;20300;-67
2023/09/24 15:42:57;;;;;;;4.28;1.00;;;;;;;;;;6230572;28;20292;-68
2023/09/24 15:46:01;;;;;;;1.05;1.05;;;;;;;;;;6230784;28;20574;-68
2023/09/24 15:49:06;;;;;;;1.48;1.00;;;;;;;;;;6230264;28;20304;-67
2023/09/24 15:52:10;;;;;;;0.98;0.98;;;;;;;;;;6230927;28;20541;-68
2023/09/24 15:55:13;;;;;;;4.00;1.35;;;;;;;;;;6230051;28;20292;-67
2023/09/24 15:58:17;;;;;;;2.25;1.13;;;;;;;;;;6229567;28;20307;-68
2023/09/24 16:01:21;;;;;;;0.93;0.90;;;;;;;;;;6230570;28;20300;-68
2023/09/24 16:04:27;;;;;;;1.00;1.00;;;;;;;;;;6229920;28;20315;-69
2023/09/24 16:07:30;;;;;;;1.75;0.98;;;;;;;;;;6229926;28;20312;-68
2023/09/24 16:10:34;;;;;;;0.88;0.88;;;;;;;;;;6230605;28;20292;-68
2023/09/24 16:13:39;;;;;;;0.88;0.88;;;;;;;;;;6230050;28;20292;-68
2023/09/24 16:16:43;;;;;;;1.20;1.20;;;;;;;;;;6230061;28;20304;-69
2023/09/24 16:19:49;;;;;;;1.10;0.95;;;;;;;;;;6229775;28;20332;-68
2023/09/24 16:22:52;;;;;;;0.80;0.80;;;;;;;;;;6229424;28;20304;-69
2023/09/24 16:25:57;;;;;;;1.85;1.10;;;;;;;;;;6230491;28;20301;-69
2023/09/24 16:29:01;;;;;;;1.13;1.08;;;;;;;;;;6229632;28;20296;-68
2023/09/24 16:32:05;;;;;;;5.07;1.23;;;;;;;;;;6229853;28;20498;-69
2023/09/24 16:35:10;;;;;;;3.88;1.10;;;;;;;;;;6227186;28;20311;-70
2023/09/24 16:38:14;;;;;;;2.10;1.20;;;;;;;;;;6236696;28;20309;-70
2023/09/24 16:41:18;;;;;;;2.75;0.93;;;;;;;;;;6227931;28;20300;-69
2023/09/24 16:44:22;;;;;;;1.00;1.00;;;;;;;;;;6229837;28;20501;-70
2023/09/24 16:47:25;;;;;;;6.72;1.20;;;;;;;;;;6229493;28;20307;-70
2023/09/24 16:50:31;;;;;;;2.95;1.20;;;;;;;;;;6229880;28;20307;-71
2023/09/24 16:53:34;;;;;;;4.43;1.75;;;;;;;;;;6229543;28;20300;-69
2023/09/24 16:56:38;;;;;;;3.90;1.50;;;;;;;;;;6229778;28;20296;-68
2023/09/24 16:59:42;;;;;;;1.10;1.10;;;;;;;;;;6229323;28;20304;-70
2023/09/24 17:02:46;;;;;;;6.03;1.35;;;;;;;;;;6227828;28;20304;-68
2023/09/24 17:05:51;;;;;;;2.03;1.30;;;;;;;;;;6228832;28;20447;-70
2023/09/24 17:08:55;;;;;;;2.60;1.70;;;;;;;;;;6230119;28;20320;-71
2023/09/24 17:12:01;;;;;;;1.70;1.60;;;;;;;;;;6234699;28;20308;-69
2023/09/24 17:15:06;;;;;;;2.05;1.95;;;;;;;;;;6229514;28;20623;-69
2023/09/24 17:18:10;;;;;;;1.77;1.77;;;;;;;;;;6232310;28;20419;-68
2023/09/24 17:21:16;;;;;;;2.13;1.30;;;;;;;;;;6234168;28;20323;-68
2023/09/24 17:24:23;;;;;;;4.00;1.20;;;;;;;;;;6222461;28;20308;-70
2023/09/24 17:27:27;;;;;;;1.20;1.20;;;;;;;;;;6232162;28;20327;-69
2023/09/24 17:30:31;;;;;;;1.23;1.17;;;;;;;;;;6233774;28;20463;-70
2023/09/24 17:33:36;;;;;;;2.00;1.30;;;;;;;;;;6233263;28;20296;-70
2023/09/24 17:36:41;;;;;;;1.48;1.42;;;;;;;;;;6234476;28;20300;-69
2023/09/24 17:39:45;;;;;;;3.25;2.88;;;;;;;;;;6220117;28;20247;-67
2023/09/24 17:42:49;;;;;;;5.00;2.92;;;;;;;;;;6225002;28;20307;-69
2023/09/24 17:46:00;;;;;;;3.83;3.58;;;;;;;;;;6235163;28;20568;-68
2023/09/24 17:49:04;;;;;;;6.50;4.43;;;;;;;;;;6233592;28;20309;-69
2023/09/24 17:52:09;;;;;;;3.95;3.53;;;;;;;;;;6220557;28;20307;-70
2023/09/24 17:55:13;;;;;;;5.22;3.38;;;;;;;;;;6226969;28;20363;-69
2023/09/24 17:58:17;;;;;;;3.08;1.67;;;;;;;;;;6225577;28;20296;-69
2023/09/24 18:01:24;;;;;;;1.52;1.52;;;;;;;;;;6233632;28;20319;-70
2023/09/24 18:04:29;;;;;;;1.75;1.30;;;;;;;;;;6222799;28;20537;-70
2023/09/24 18:07:34;;;;;;;1.35;1.25;;;;;;;;;;6222836;28;20585;-70
2023/09/24 18:10:38;;;;;;;2.80;1.38;;;;;;;;;;6224339;28;20352;-71
2023/09/24 18:13:42;;;;;;;1.20;1.20;;;;;;;;;;6241652;28;20419;-69
2023/09/24 18:16:46;;;;;;;11.00;1.52;;;;;;;;;;6208590;28;20259;-69
2023/09/24 18:19:50;;;;;;;5.80;1.70;;;;;;;;;;6219259;28;20621;-69
2023/09/24 18:22:55;;;;;;;1.13;1.13;;;;;;;;;;6209126;28;20289;-70
2023/09/24 18:25:59;;;;;;;4.15;1.10;;;;;;;;;;6208424;28;20299;-68
2023/09/24 18:29:03;;;;;;;5.88;1.52;;;;;;;;;;6230858;28;20598;-70
2023/09/24 18:32:07;;;;;;;1.30;1.30;;;;;;;;;;6221285;28;20489;-71